createdAt,value
2022-10-17T00:01:00.490Z,10.60
2022-10-17T00:03:27.841Z,9.25
2022-10-17T00:05:55.264Z,8.27
2022-10-17T00:08:22.665Z,7.72
2022-10-17T00:10:58.138Z,7.22
2022-10-17T00:13:25.607Z,8.07
2022-10-17T00:15:53.136Z,9.07
2022-10-17T00:18:20.545Z,8.10
2022-10-17T00:20:47.919Z,7.53
2022-10-17T00:23:15.319Z,9.55
2022-10-17T00:25:42.847Z,9.38
2022-10-17T00:28:12.110Z,9.18
2022-10-17T00:30:39.770Z,8.98
2022-10-17T00:33:07.982Z,7.57
2022-10-17T00:35:35.390Z,10.80
2022-10-17T00:38:02.739Z,7.65
2022-10-17T00:40:30.148Z,8.50
2022-10-17T00:42:57.568Z,7.80
2022-10-17T00:45:26.877Z,9.00
2022-10-17T00:47:55.972Z,7.78
2022-10-17T00:50:24.289Z,10.65
2022-10-17T00:52:52.067Z,8.90
2022-10-17T00:55:22.359Z,9.48
2022-10-17T00:57:49.922Z,10.13
2022-10-17T01:00:20.426Z,7.55
2022-10-17T01:02:49.395Z,9.85
2022-10-17T01:05:17.714Z,8.45
2022-10-17T01:07:45.678Z,8.90
2022-10-17T01:10:13.800Z,7.50
2022-10-17T01:12:46.911Z,8.90
2022-10-17T01:15:19.643Z,8.70
2022-10-17T01:17:54.765Z,9.23
2022-10-17T01:20:40.128Z,9.20
2022-10-17T01:23:17.456Z,7.80
2022-10-17T01:25:50.807Z,8.88
2022-10-17T01:28:27.231Z,8.45
2022-10-17T01:31:04.191Z,7.95
2022-10-17T01:33:34.392Z,8.83
2022-10-17T01:36:05.842Z,7.55
2022-10-17T01:38:36.638Z,8.00
2022-10-17T01:41:07.348Z,8.70
2022-10-17T01:43:37.398Z,7.75
2022-10-17T01:46:08.307Z,8.85
2022-10-17T01:48:37.239Z,6.70
2022-10-17T01:51:08.212Z,7.63
2022-10-17T01:53:38.002Z,7.95
2022-10-17T01:56:07.041Z,7.72
2022-10-17T01:58:37.385Z,7.63
2022-10-17T02:01:07.778Z,8.27
2022-10-17T02:03:36.030Z,7.13
2022-10-17T02:06:06.521Z,7.43
2022-10-17T02:08:42.067Z,7.40
2022-10-17T02:11:12.758Z,6.30
2022-10-17T02:13:46.667Z,6.20
2022-10-17T02:16:26.189Z,6.47
2022-10-17T02:19:02.811Z,6.43
2022-10-17T02:21:34.275Z,7.30
2022-10-17T02:24:08.320Z,7.57
2022-10-17T02:26:39.411Z,7.05
2022-10-17T02:29:15.007Z,8.00
2022-10-17T02:31:47.886Z,8.02
2022-10-17T02:34:18.361Z,8.68
2022-10-17T02:36:49.677Z,7.47
2022-10-17T02:39:17.648Z,8.20
2022-10-17T02:41:45.790Z,7.30
2022-10-17T02:44:13.169Z,7.28
2022-10-17T02:46:42.025Z,8.40
2022-10-17T02:49:15.046Z,9.43
2022-10-17T02:51:45.527Z,10.02
2022-10-17T02:54:17.955Z,7.80
2022-10-17T02:56:48.306Z,9.00
2022-10-17T02:59:18.750Z,8.30
2022-10-17T03:01:46.280Z,9.40
2022-10-17T03:04:15.612Z,9.40
2022-10-17T03:06:43.525Z,8.82
2022-10-17T03:09:10.951Z,9.35
2022-10-17T03:11:38.475Z,9.38
2022-10-17T03:14:06.617Z,10.88
2022-10-17T03:16:34.030Z,10.43
2022-10-17T03:19:01.477Z,10.60
2022-10-17T03:21:30.258Z,12.30
2022-10-17T03:23:58.120Z,11.40
2022-10-17T03:26:25.535Z,9.93
2022-10-17T03:28:54.524Z,10.52
2022-10-17T03:31:23.854Z,10.65
2022-10-17T03:33:52.510Z,10.05
2022-10-17T03:36:20.504Z,7.90
2022-10-17T03:38:49.635Z,7.70
2022-10-17T03:41:18.064Z,6.70
2022-10-17T03:43:45.448Z,6.97
2022-10-17T03:46:13.229Z,6.50
2022-10-17T03:48:40.774Z,6.75
2022-10-17T03:53:41.283Z,6.47
2022-10-17T03:56:15.137Z,6.78
2022-10-17T03:58:43.181Z,6.65
2022-10-17T04:01:12.578Z,6.15
2022-10-17T04:03:40.054Z,6.28
2022-10-17T04:06:07.907Z,7.22
2022-10-17T04:08:37.346Z,6.88
2022-10-17T04:11:15.389Z,6.10
2022-10-17T04:13:43.529Z,6.05
2022-10-17T04:16:12.711Z,7.15
2022-10-17T04:18:47.165Z,7.90
2022-10-17T04:21:14.656Z,6.43
2022-10-17T04:23:42.056Z,6.97
2022-10-17T04:26:22.132Z,7.78
2022-10-17T04:28:49.679Z,6.20
2022-10-17T04:31:17.261Z,6.07
2022-10-17T04:34:03.376Z,6.43
2022-10-17T04:36:30.828Z,6.38
2022-10-17T04:38:58.286Z,6.13
2022-10-17T04:41:26.992Z,7.40
2022-10-17T04:43:54.434Z,6.95
2022-10-17T04:46:22.121Z,7.35
2022-10-17T04:48:50.054Z,8.00
2022-10-17T04:51:20.635Z,7.28
2022-10-17T04:54:13.477Z,7.47
2022-10-17T04:56:45.015Z,13.65
2022-10-17T04:59:12.396Z,8.40
2022-10-17T05:01:41.456Z,7.88
2022-10-17T05:04:08.861Z,9.63
2022-10-17T05:06:37.631Z,9.15
2022-10-17T05:09:33.585Z,6.70
2022-10-17T05:12:04.347Z,8.40
2022-10-17T05:14:34.105Z,7.55
2022-10-17T05:17:01.476Z,8.02
2022-10-17T05:19:30.002Z,7.03
2022-10-17T05:21:57.492Z,6.93
2022-10-17T05:24:24.859Z,7.65
2022-10-17T05:26:52.283Z,7.45
2022-10-17T05:29:21.095Z,6.55
2022-10-17T05:31:53.748Z,5.90
2022-10-17T05:34:21.146Z,7.57
2022-10-17T05:36:48.575Z,5.78
2022-10-17T05:39:19.990Z,6.13
2022-10-17T05:41:51.123Z,5.30
2022-10-17T05:44:18.576Z,5.80
2022-10-17T05:46:52.611Z,6.45
2022-10-17T05:49:32.644Z,5.90
2022-10-17T05:52:08.049Z,4.80
2022-10-17T05:54:46.616Z,7.50
2022-10-17T05:57:14.171Z,5.95
2022-10-17T06:02:14.843Z,5.15
2022-10-17T06:04:45.854Z,4.72
2022-10-17T06:07:14.664Z,4.80
2022-10-17T06:12:16.459Z,4.78
2022-10-17T06:14:47.391Z,4.68
2022-10-17T06:17:17.420Z,4.90
2022-10-17T06:19:45.380Z,4.65
2022-10-17T06:22:15.079Z,4.28
2022-10-17T06:27:12.272Z,5.00
2022-10-17T06:29:41.523Z,4.60
2022-10-17T06:32:12.594Z,4.55
2022-10-17T06:34:44.563Z,4.22
2022-10-17T06:37:11.911Z,5.13
2022-10-17T06:39:41.289Z,3.88
2022-10-17T06:42:13.126Z,4.90
2022-10-17T06:44:49.934Z,4.97
2022-10-17T06:47:34.321Z,5.72
2022-10-17T06:50:09.373Z,5.75
2022-10-17T06:52:44.855Z,7.60
2022-10-17T06:55:34.868Z,5.28
2022-10-17T06:58:21.107Z,6.07
2022-10-17T07:03:41.231Z,5.80
2022-10-17T07:06:11.200Z,4.80
2022-10-17T07:08:43.165Z,5.18
2022-10-17T07:11:11.204Z,5.45
2022-10-17T07:13:39.406Z,6.50
2022-10-17T07:16:08.004Z,4.00
2022-10-17T07:18:36.110Z,4.05
2022-10-17T07:21:03.961Z,3.78
2022-10-17T07:23:34.247Z,4.28
2022-10-17T07:26:02.289Z,3.60
2022-10-17T07:28:30.254Z,3.90
2022-10-17T07:31:04.214Z,3.97
2022-10-17T07:33:31.644Z,4.22
2022-10-17T07:35:59.454Z,3.85
2022-10-17T07:40:59.100Z,4.00
2022-10-17T07:43:27.062Z,4.03
2022-10-17T07:45:55.516Z,3.53
2022-10-17T07:48:23.687Z,4.00
2022-10-17T07:50:51.574Z,4.20
2022-10-17T07:53:19.297Z,3.80
2022-10-17T07:55:47.795Z,3.53
2022-10-17T07:58:17.094Z,3.67
2022-10-17T08:00:48.189Z,3.65
2022-10-17T08:03:15.811Z,3.60
2022-10-17T08:05:43.233Z,3.35
2022-10-17T08:08:10.590Z,4.15
2022-10-17T08:10:38.087Z,4.32
2022-10-17T08:13:05.487Z,3.33
2022-10-17T08:15:34.192Z,3.88
2022-10-17T08:18:01.997Z,3.05
2022-10-17T08:22:56.609Z,3.65
2022-10-17T08:25:24.856Z,3.78
2022-10-17T08:27:52.259Z,3.78
2022-10-17T08:30:19.643Z,3.55
2022-10-17T08:32:48.351Z,3.83
2022-10-17T08:35:15.887Z,3.90
2022-10-17T08:37:43.308Z,3.00
2022-10-17T08:40:15.571Z,3.72
2022-10-17T08:42:48.654Z,2.97
2022-10-17T08:45:19.386Z,3.13
2022-10-17T08:47:49.408Z,2.85
2022-10-17T08:50:24.881Z,3.60
2022-10-17T08:52:53.394Z,3.00
2022-10-17T08:55:23.550Z,3.33
2022-10-17T08:57:50.937Z,2.88
2022-10-17T09:00:19.740Z,3.85
2022-10-17T09:02:58.535Z,3.60
2022-10-17T09:05:29.240Z,2.97
2022-10-17T09:08:01.459Z,2.72
2022-10-17T09:10:31.365Z,3.20
2022-10-17T09:13:07.620Z,2.92
2022-10-17T09:15:41.527Z,2.65
2022-10-17T09:18:12.463Z,2.92
2022-10-17T09:20:43.241Z,2.78
2022-10-17T09:23:13.265Z,3.00
2022-10-17T09:25:43.436Z,2.85
2022-10-17T09:28:14.773Z,2.72
2022-10-17T09:30:45.917Z,2.88
2022-10-17T09:33:28.364Z,2.90
2022-10-17T09:36:04.348Z,3.20
2022-10-17T09:38:35.651Z,2.63
2022-10-17T09:41:04.726Z,3.17
2022-10-17T09:43:40.167Z,2.75
2022-10-17T09:46:09.430Z,3.05
2022-10-17T09:48:40.242Z,2.60
2022-10-17T09:51:15.168Z,3.38
2022-10-17T09:53:54.679Z,3.13
2022-10-17T09:56:22.040Z,2.78
2022-10-17T09:58:52.649Z,2.88
2022-10-17T10:01:24.144Z,2.70
2022-10-17T10:04:06.896Z,2.88
2022-10-17T10:06:35.660Z,2.78
2022-10-17T10:09:04.991Z,2.92
2022-10-17T10:11:45.961Z,2.95
2022-10-17T10:14:14.084Z,3.65
2022-10-17T10:16:43.241Z,3.05
2022-10-17T10:19:20.456Z,3.00
2022-10-17T10:21:56.036Z,3.03
2022-10-17T10:24:30.419Z,3.50
2022-10-17T10:26:59.536Z,2.78
2022-10-17T10:29:30.666Z,3.17
2022-10-17T10:31:59.548Z,2.78
2022-10-17T10:34:28.718Z,2.83
2022-10-17T10:36:59.004Z,3.08
2022-10-17T10:39:32.498Z,3.00
2022-10-17T10:42:00.535Z,2.80
2022-10-17T10:44:29.842Z,3.42
2022-10-17T10:47:07.227Z,3.00
2022-10-17T10:49:34.613Z,3.17
2022-10-17T10:52:04.097Z,2.45
2022-10-17T10:54:33.597Z,2.90
2022-10-17T10:57:03.207Z,2.42
2022-10-17T10:59:32.845Z,2.90
2022-10-17T11:02:03.053Z,3.10
2022-10-17T11:04:32.307Z,3.10
2022-10-17T11:07:02.418Z,3.20
2022-10-17T11:09:36.846Z,3.22
2022-10-17T11:12:06.284Z,2.70
2022-10-17T11:14:37.364Z,2.90
2022-10-17T11:17:08.640Z,2.70
2022-10-17T11:19:38.005Z,2.63
2022-10-17T11:22:08.364Z,3.20
2022-10-17T11:24:41.319Z,3.13
2022-10-17T11:27:09.077Z,3.17
2022-10-17T11:34:33.154Z,2.50
2022-10-17T11:37:03.108Z,2.72
2022-10-17T11:39:32.315Z,2.83
2022-10-17T11:42:04.336Z,3.42
2022-10-17T11:44:35.283Z,3.00
2022-10-17T11:47:05.859Z,3.42
2022-10-17T11:49:38.482Z,2.78
2022-10-17T11:52:19.502Z,2.78
2022-10-17T11:55:02.905Z,3.30
2022-10-17T11:57:41.915Z,3.65
2022-10-17T12:00:18.175Z,3.70
2022-10-17T12:02:48.361Z,2.75
2022-10-17T12:05:21.138Z,3.53
2022-10-17T12:07:49.939Z,2.60
2022-10-17T12:10:28.387Z,3.13
2022-10-17T12:12:57.141Z,3.08
2022-10-17T12:15:32.039Z,2.70
2022-10-17T12:18:02.329Z,2.53
2022-10-17T12:20:34.032Z,2.95
2022-10-17T12:23:07.155Z,2.78
2022-10-17T12:25:39.006Z,3.38
2022-10-17T12:28:14.952Z,3.00
2022-10-17T12:30:53.107Z,3.00
2022-10-17T12:33:22.511Z,3.38
2022-10-17T12:35:51.102Z,2.70
2022-10-17T12:38:28.642Z,2.67
2022-10-17T12:43:47.226Z,3.10
2022-10-17T12:46:37.613Z,3.25
2022-10-17T12:49:20.977Z,2.65
2022-10-17T12:52:07.228Z,2.55
2022-10-17T12:54:47.299Z,3.10
2022-10-17T12:57:22.653Z,3.65
2022-10-17T12:59:50.184Z,3.50
2022-10-17T13:02:20.070Z,2.95
2022-10-17T13:04:49.777Z,3.83
2022-10-17T13:07:19.306Z,3.95
2022-10-17T13:09:46.764Z,3.35
2022-10-17T13:12:15.085Z,4.05
2022-10-17T13:14:43.485Z,3.42
2022-10-17T13:17:22.218Z,4.05
2022-10-17T13:19:51.012Z,3.42
2022-10-17T13:22:19.691Z,3.88
2022-10-17T13:24:47.652Z,3.88
2022-10-17T13:27:26.822Z,3.58
2022-10-17T13:29:56.123Z,3.67
2022-10-17T13:32:24.318Z,3.55
2022-10-17T13:35:10.320Z,4.38
2022-10-17T13:37:38.148Z,3.65
2022-10-17T13:42:45.455Z,3.88
2022-10-17T13:45:18.245Z,4.03
2022-10-17T13:47:46.552Z,4.25
2022-10-17T13:50:43.011Z,3.20
2022-10-17T13:53:15.776Z,3.78
2022-10-17T13:56:03.762Z,4.10
2022-10-17T13:58:41.051Z,3.30
2022-10-17T14:01:08.617Z,3.75
2022-10-17T14:03:47.817Z,3.58
2022-10-17T14:06:19.244Z,4.25
2022-10-17T14:08:51.874Z,3.83
2022-10-17T14:11:23.192Z,3.67
2022-10-17T14:13:51.143Z,3.60
2022-10-17T14:16:18.883Z,4.13
2022-10-17T14:21:43.792Z,4.10
2022-10-17T14:24:27.920Z,4.18
2022-10-17T14:26:56.021Z,4.37
2022-10-17T14:29:25.158Z,4.43
2022-10-17T14:31:58.053Z,4.20
2022-10-17T14:34:28.521Z,5.07
2022-10-17T14:36:57.798Z,3.97
2022-10-17T14:39:27.074Z,4.18
2022-10-17T14:41:55.024Z,3.35
2022-10-17T14:44:26.882Z,4.10
2022-10-17T14:46:56.231Z,3.58
2022-10-17T14:49:26.776Z,3.92
2022-10-17T14:52:10.491Z,3.75
2022-10-17T14:54:44.172Z,4.30
2022-10-17T14:57:16.571Z,4.10
2022-10-17T14:59:59.389Z,4.20
2022-10-17T15:02:27.794Z,4.20
2022-10-17T15:04:55.732Z,3.92
2022-10-17T15:09:53.938Z,4.20
2022-10-17T15:12:22.418Z,4.15
2022-10-17T15:14:50.509Z,3.75
2022-10-17T15:17:20.643Z,4.65
2022-10-17T15:19:48.082Z,4.57
2022-10-17T15:22:16.312Z,4.25
2022-10-17T15:24:45.790Z,4.07
2022-10-17T15:27:16.851Z,4.38
2022-10-17T15:29:44.318Z,4.70
2022-10-17T15:32:11.774Z,4.15
2022-10-17T15:34:39.439Z,5.75
2022-10-17T15:37:07.759Z,4.70
2022-10-17T15:39:35.128Z,4.60
2022-10-17T15:42:02.593Z,4.90
2022-10-17T15:44:31.403Z,4.75
2022-10-17T15:46:58.761Z,5.10
2022-10-17T15:49:26.184Z,4.95
2022-10-17T15:51:55.423Z,5.82
2022-10-17T15:54:22.939Z,5.65
2022-10-17T15:56:53.432Z,5.93
2022-10-17T15:59:22.300Z,5.60
2022-10-17T16:01:51.659Z,5.53
2022-10-17T16:04:22.286Z,5.70
2022-10-17T16:06:51.434Z,5.40
2022-10-17T16:09:19.264Z,6.55
2022-10-17T16:16:42.875Z,6.10
2022-10-17T16:19:12.161Z,6.10
2022-10-17T16:21:41.853Z,5.60
2022-10-17T16:24:11.184Z,5.10
2022-10-17T16:26:39.136Z,6.03
2022-10-17T16:29:07.947Z,7.05
2022-10-17T16:31:37.065Z,7.50
2022-10-17T16:34:06.541Z,6.38
2022-10-17T16:36:36.105Z,6.45
2022-10-17T16:39:04.126Z,6.28
2022-10-17T16:41:37.062Z,5.75
2022-10-17T16:44:07.162Z,6.32
2022-10-17T16:46:37.057Z,6.18
2022-10-17T16:49:08.140Z,5.90
2022-10-17T16:51:37.619Z,6.65
2022-10-17T16:54:06.030Z,5.95
2022-10-17T16:56:35.462Z,5.85
2022-10-17T16:59:04.248Z,7.40
2022-10-17T17:01:31.981Z,6.25
2022-10-17T17:03:59.931Z,6.50
2022-10-17T17:11:24.747Z,7.05
2022-10-17T17:13:52.987Z,7.70
2022-10-17T17:16:21.458Z,7.00
2022-10-17T17:18:51.501Z,6.63
2022-10-17T17:21:19.303Z,6.18
2022-10-17T17:26:15.488Z,6.20
2022-10-17T17:28:44.912Z,7.68
2022-10-17T17:31:13.752Z,6.80
2022-10-17T17:33:41.817Z,7.85
2022-10-17T17:36:11.074Z,7.50
2022-10-17T17:38:39.993Z,5.90
2022-10-17T17:41:07.420Z,6.22
2022-10-17T17:43:35.353Z,6.45
2022-10-17T17:46:04.631Z,6.18
2022-10-17T17:48:32.569Z,5.75
2022-10-17T17:53:29.316Z,7.65
2022-10-17T17:56:06.047Z,8.18
2022-10-17T17:58:34.030Z,6.75
2022-10-17T18:05:58.434Z,5.35
2022-10-17T18:08:26.258Z,5.30
2022-10-17T18:13:22.571Z,5.38
2022-10-17T18:15:51.914Z,4.43
2022-10-17T18:18:19.963Z,4.65
2022-10-17T18:20:47.721Z,4.45
2022-10-17T18:23:17.906Z,4.82
2022-10-17T18:25:53.693Z,4.68
2022-10-17T18:28:21.899Z,5.72
2022-10-17T18:30:50.034Z,6.30
2022-10-17T18:33:17.855Z,5.68
2022-10-17T18:38:14.702Z,5.95
2022-10-17T18:40:46.088Z,5.95
2022-10-17T18:43:16.714Z,6.22
2022-10-17T18:45:44.533Z,5.90
2022-10-17T18:53:07.674Z,6.57
2022-10-17T18:58:04.564Z,6.22
2022-10-17T19:00:33.150Z,6.25
2022-10-17T19:03:00.954Z,6.60
2022-10-17T19:07:56.323Z,7.95
2022-10-17T19:10:25.698Z,6.65
2022-10-17T19:12:53.958Z,7.35
2022-10-17T19:15:25.856Z,8.02
2022-10-17T19:17:54.119Z,6.78
2022-10-17T19:20:22.331Z,7.15
2022-10-17T19:22:50.239Z,6.50
2022-10-17T19:27:45.252Z,6.90
2022-10-17T19:30:12.937Z,6.93
2022-10-17T19:32:41.655Z,7.50
2022-10-17T19:35:11.106Z,7.82
2022-10-17T19:37:38.656Z,6.70
2022-10-17T19:40:06.554Z,7.38
2022-10-17T19:45:02.801Z,6.95
2022-10-17T19:49:58.870Z,7.20
2022-10-17T19:52:26.275Z,6.60
2022-10-17T19:54:53.676Z,7.10
2022-10-17T19:57:21.087Z,7.85
2022-10-17T19:59:50.233Z,7.18
2022-10-17T20:02:19.961Z,6.95
2022-10-17T20:04:54.490Z,7.50
2022-10-17T20:07:28.797Z,7.53
2022-10-17T20:09:56.178Z,6.65
2022-10-17T20:12:23.587Z,6.43
2022-10-17T20:14:50.972Z,7.70
2022-10-17T20:17:18.351Z,7.60
2022-10-17T20:19:46.032Z,7.60
2022-10-17T20:22:13.446Z,7.05
2022-10-17T20:24:42.163Z,6.28
2022-10-17T20:27:09.714Z,6.68
2022-10-17T20:29:37.182Z,6.97
2022-10-17T20:32:04.608Z,7.30
2022-10-17T20:34:35.297Z,5.85
2022-10-17T20:37:02.753Z,6.40
2022-10-17T20:39:30.436Z,6.70
2022-10-17T20:41:59.150Z,6.15
2022-10-17T20:44:26.542Z,5.05
2022-10-17T20:47:01.669Z,4.72
2022-10-17T20:49:29.989Z,6.07
2022-10-17T20:51:57.711Z,4.43
2022-10-17T20:54:25.421Z,3.67
2022-10-17T20:56:52.837Z,3.75
2022-10-17T20:59:21.615Z,3.88
2022-10-17T21:01:49.086Z,3.58
2022-10-17T21:04:43.920Z,4.15
2022-10-17T21:07:04.267Z,4.38
2022-10-17T21:09:31.630Z,4.10
2022-10-17T21:11:59.022Z,5.88
2022-10-17T21:14:27.729Z,6.72
2022-10-17T21:16:55.389Z,4.38
2022-10-17T21:19:23.900Z,4.18
2022-10-17T21:21:51.528Z,4.20
2022-10-17T21:24:20.446Z,4.10
2022-10-17T21:26:49.661Z,4.25
2022-10-17T21:29:17.031Z,3.65
2022-10-17T21:31:45.769Z,3.38
2022-10-17T21:34:14.388Z,3.72
2022-10-17T21:36:42.074Z,4.30
2022-10-17T21:39:10.939Z,4.07
2022-10-17T21:41:38.642Z,4.25
2022-10-17T21:44:08.407Z,4.55
2022-10-17T21:46:35.775Z,4.32
2022-10-17T21:49:04.488Z,4.80
2022-10-17T21:51:31.877Z,4.55
2022-10-17T21:53:59.256Z,4.38
2022-10-17T21:56:28.625Z,5.00
2022-10-17T21:58:56.510Z,4.70
2022-10-17T22:03:52.019Z,4.75
2022-10-17T22:09:09.757Z,4.95
2022-10-17T22:11:37.147Z,5.10
2022-10-17T22:14:07.177Z,5.75
2022-10-17T22:16:34.593Z,4.68
2022-10-17T22:19:06.222Z,5.03
2022-10-17T22:21:36.004Z,4.57
2022-10-17T22:24:04.949Z,5.15
2022-10-17T22:26:33.368Z,5.18
2022-10-17T22:29:01.164Z,5.50
2022-10-17T22:33:56.337Z,5.57
2022-10-17T22:38:52.377Z,5.43
2022-10-17T22:41:19.733Z,6.32
2022-10-17T22:43:47.162Z,6.22
2022-10-17T22:46:16.015Z,6.43
2022-10-17T22:48:43.535Z,6.43
2022-10-17T22:51:11.050Z,6.43
2022-10-17T22:53:38.528Z,6.05
2022-10-17T22:56:08.370Z,5.80
2022-10-17T22:58:36.145Z,5.93
2022-10-17T23:01:04.223Z,5.90
2022-10-17T23:03:32.415Z,6.00
2022-10-17T23:06:00.092Z,4.88
2022-10-17T23:08:28.204Z,5.50
2022-10-17T23:10:55.562Z,5.25
2022-10-17T23:13:24.308Z,6.30
2022-10-17T23:15:52.746Z,6.65
2022-10-17T23:18:20.269Z,6.22
2022-10-17T23:20:48.008Z,6.05
2022-10-17T23:23:15.687Z,7.72
2022-10-17T23:25:43.380Z,7.03
2022-10-17T23:28:10.969Z,7.03
2022-10-17T23:30:40.030Z,7.40
2022-10-17T23:33:07.496Z,9.80
2022-10-17T23:35:35.383Z,9.73
2022-10-17T23:38:03.000Z,8.07
2022-10-17T23:40:30.370Z,7.88
2022-10-17T23:42:57.780Z,7.15
2022-10-17T23:45:25.199Z,7.30
2022-10-17T23:47:54.035Z,7.20
2022-10-17T23:50:21.424Z,7.45
2022-10-17T23:52:48.795Z,7.38
2022-10-17T23:55:16.186Z,6.57
2022-10-17T23:57:43.561Z,8.45
